AirNav   Everest Fuels
 
 1090 users online  

64PA J C Blair Memorial Hospital Heliport
Huntingdon, Pennsylvania, USA

GOING TO HUNTINGDON?


FAA INFORMATION EFFECTIVE 07 NOVEMBER 2019

Location

FAA Identifier: 64PA
Lat/Long: 40-29-39.3900N 078-00-32.9100W
40-29.656500N 078-00.548500W
40.4942750,-78.0091417
(estimated)
Elevation: 743.3 ft. / 227 m (estimated)
Variation: 09W (1985)
Time zone: UTC -5 (UTC -4 during Daylight Saving Time)
Zip code: 16652

Heliport Operations

Heliport use: Private use, MEDICAL
Activation date: 03/1990
Control tower: no
ARTCC: CLEVELAND CENTER
FSS: ALTOONA FLIGHT SERVICE STATION
Attendance: CONTINUOUS
Wind indicator: lighted
Segmented circle: no
Lights: SS-SR

Heliport Communications

WX ASOS at AOO (19 nm SW): 127.125 (814-793-9655)

Nearby radio navigation aids

VOR radial/distance  VOR name  Freq  Var
PSBr192/25.3PHILIPSBURG VORTAC115.5010W
THSr002/33.8ST THOMAS VORTAC115.0007W
RECr104/33.8REVLOC VOR/DME110.6009W
JSTr080/39.2JOHNSTOWN VOR/DME113.0006W

Heliport Services

Runway Information

Helipad H1

Dimensions: 80 x 80 ft. / 24 x 24 m
Surface: asphalt, in fair condition
Runway edge lights: PERI
Latitude: 40-29.656500N
Longitude: 078-00.548500W
Elevation: 743.3 ft.
Traffic pattern: leftleft
Markings: none, in fair condition

Heliport Ownership and Management from official FAA records

Ownership: Privately-owned
Owner: J.C. BLAIR MEMORIAL HOSPITAL
1225 WARM SPRINGS AVENUE
HUNTINGDON, PA 16652
Phone 814-643-2290
Manager: MICHAEL D. MCKIM
1225 WARM SPRINGS AVENUE
HUNTINGDON, PA 16652
Phone 814-643-8705

Additional Remarks

FOR CD CTC JOHNSTOWN APCH AT 814-532-5960, WHEN APCH CLSD CTC CLEVELAND ARTCC AT 440-774-0234.

Instrument Procedures

There are no published instrument procedures at 64PA.

Some nearby airports with instrument procedures:

KAOO - Altoona-Blair County Airport (19 nm SW)
KRVL - Mifflin County Airport (21 nm NE)
KUNV - University Park Airport (23 nm N)
KPSB - Mid-State Airport (24 nm N)
N96 - Bellefonte Airport (25 nm N)
 
Loc | Ops | Rwys | IFR | FBO | Links
Com | Nav | Svcs | Stats | Notes
Area around 64PA (J C Blair Memorial Hospital Heliport)
 
Road maps at: MapQuest Bing Google
 
Aerial photo
No photo
 
Sectional chart

 
Airport distance calculator
Flying to J C Blair Memorial Hospital Heliport? Find the distance to fly.

From to 64PA

Sunrise and sunset
Times for 21-Nov-2019
 Local
(UTC-5)
 Zulu
(UTC)
Morning civil twilight06:3711:37
Sunrise07:0612:06
Sunset16:5021:50
Evening civil twilight17:1922:19

Current date and time
Zulu (UTC)  21-Nov-2019 14:06:38
Local (UTC-5)  21-Nov-2019 09:06:38
 
METAR
KAOO 
18nm SW 
211353Z AUTO 24003KT 9SM CLR 02/M02 A3023 RMK AO2 SLP250 T00171017
KRVL 
21nm NE 
211355Z AUTO 00000KT 6SM BR CLR 01/M00 A3025 RMK AO2
KUNV 
23nm N 
211353Z 00000KT 10SM HZ SKC 00/M01 A3023
KHMZ 
34nm SW 
211330Z AUTO 00000KT 7SM CLR M02/M03 A3026 RMK AO2 T10181029
TAF
KAOO 
18nm SW 
211146Z 2112/2212 27004KT P6SM FEW250 FM211400 20005KT P6SM BKN120 FM220100 21007KT P6SM OVC050 FM221100 24007KT P6SM -SHRA OVC035
KUNV 
23nm N 
211146Z 2112/2212 25005KT P6SM FEW250 FM211500 21006KT P6SM BKN120 FM212000 21006KT P6SM OVC090 FM220300 22007KT P6SM OVC050 FM220800 25010KT P6SM VCSH OVC025
NOTAMs
Click for the latest NOTAMs
NOTAMs are issued by the DoD/FAA and will open in a separate window not controlled by AirNav.

 

 
 

Would you like to see your business listed on this page?

 If your business provides an interesting product or service to pilots, flight crews, aircraft, or users of the J C Blair Memorial Hospital Heliport, you should consider listing it here.  To start the listing process, click on the button below
 
Add a business
 

Other Pages about J C Blair Memorial Hospital Heliport

Update a link
 
Copyright © AirNav, LLC. All rights reserved. Privacy Policy  Contact